Авиационная погода в Самаре

Регион: 
Погода METAR: 
UWWW 241400Z 22001MPS 9999 FEW033 05/M00 Q1013 R33/CLRD60 NOSIG RMK QFE749/0999
Время наблюдения
2021-10-24T14:00:00Z
Температура C
5.0
Точка росы
0.0
Направление ветра
220
Скорость ветра (узлы)
2
Метео видимость
6.21
Явления погоды
Условия полета
VFR
Аэропорт подробнее: